createdAt,value
2018-11-22T00:00:58.066Z,0
2018-11-22T00:02:06.697Z,0
2018-11-22T00:03:15.341Z,0
2018-11-22T00:04:23.968Z,0
2018-11-22T00:05:32.876Z,0
2018-11-22T00:06:41.510Z,0
2018-11-22T00:07:50.153Z,0
2018-11-22T00:08:58.780Z,0
2018-11-22T00:10:07.420Z,0
2018-11-22T00:11:16.054Z,0
2018-11-22T00:12:24.697Z,0
2018-11-22T00:13:33.330Z,0
2018-11-22T00:14:41.960Z,0
2018-11-22T00:15:50.597Z,0
2018-11-22T00:16:59.228Z,0
2018-11-22T00:18:07.877Z,0
2018-11-22T00:19:16.509Z,0
2018-11-22T00:20:25.417Z,0
2018-11-22T00:21:34.049Z,0
2018-11-22T00:22:42.946Z,0
2018-11-22T00:23:51.582Z,0
2018-11-22T00:25:00.478Z,0
2018-11-22T00:26:09.373Z,0
2018-11-22T00:27:18.018Z,0
2018-11-22T00:28:26.649Z,0
2018-11-22T00:29:35.287Z,0
2018-11-22T00:30:43.918Z,0
2018-11-22T00:31:52.830Z,0
2018-11-22T00:33:01.465Z,0
2018-11-22T00:34:10.102Z,0
2018-11-22T00:35:18.739Z,0
2018-11-22T00:36:27.374Z,0
2018-11-22T00:37:36.007Z,0
2018-11-22T00:38:44.643Z,0
2018-11-22T00:39:53.283Z,0
2018-11-22T00:41:01.918Z,0
2018-11-22T00:42:10.815Z,0
2018-11-22T00:43:19.448Z,0
2018-11-22T00:44:28.349Z,0
2018-11-22T00:45:36.980Z,0
2018-11-22T00:46:45.883Z,0
2018-11-22T00:47:54.517Z,0
2018-11-22T00:49:03.163Z,0
2018-11-22T00:50:11.796Z,0
2018-11-22T00:51:20.432Z,0
2018-11-22T00:52:29.064Z,0
2018-11-22T00:53:37.696Z,0
2018-11-22T00:54:46.343Z,0
2018-11-22T00:55:54.978Z,0
2018-11-22T00:57:03.612Z,0
2018-11-22T00:58:12.243Z,0
2018-11-22T00:59:20.883Z,0
2018-11-22T01:00:29.778Z,0
2018-11-22T01:01:38.413Z,0
2018-11-22T01:02:47.042Z,0
2018-11-22T01:03:55.676Z,0
2018-11-22T01:05:04.312Z,0
2018-11-22T01:06:12.948Z,0
2018-11-22T01:07:21.578Z,0
2018-11-22T01:08:30.215Z,0
2018-11-22T01:09:38.853Z,0
2018-11-22T01:10:47.491Z,0
2018-11-22T01:11:56.392Z,0
2018-11-22T01:13:05.023Z,0
2018-11-22T01:14:13.660Z,0
2018-11-22T01:15:22.295Z,0
2018-11-22T01:16:30.939Z,0
2018-11-22T01:17:39.571Z,0
2018-11-22T01:18:48.207Z,0
2018-11-22T01:19:56.840Z,0
2018-11-22T01:21:05.471Z,0
2018-11-22T01:22:14.110Z,0
2018-11-22T01:23:22.743Z,0
2018-11-22T01:24:31.649Z,0
2018-11-22T01:25:40.280Z,0
2018-11-22T01:26:48.916Z,0
2018-11-22T01:27:57.551Z,0
2018-11-22T01:29:06.188Z,0
2018-11-22T01:30:15.086Z,0
2018-11-22T01:31:23.715Z,0
2018-11-22T01:32:32.350Z,0
2018-11-22T01:33:40.987Z,0
2018-11-22T01:34:49.628Z,0
2018-11-22T01:35:58.265Z,0
2018-11-22T01:37:06.897Z,0
2018-11-22T01:38:15.533Z,0
2018-11-22T01:39:24.173Z,0
2018-11-22T01:40:32.807Z,0
2018-11-22T01:41:41.444Z,0
2018-11-22T01:42:50.077Z,0
2018-11-22T01:43:58.718Z,0
2018-11-22T01:45:07.359Z,0
2018-11-22T01:46:15.989Z,0
2018-11-22T01:47:24.622Z,0
2018-11-22T01:48:33.253Z,0
2018-11-22T01:49:41.896Z,0
2018-11-22T01:50:50.795Z,0
2018-11-22T01:51:59.699Z,0
2018-11-22T01:53:08.329Z,0
2018-11-22T01:54:16.971Z,0
2018-11-22T01:55:25.603Z,0
2018-11-22T01:56:34.237Z,0
2018-11-22T01:57:42.868Z,0
2018-11-22T01:58:51.509Z,0
2018-11-22T02:00:00.160Z,0
2018-11-22T02:01:09.065Z,0
2018-11-22T02:02:17.698Z,0
2018-11-22T02:03:26.337Z,0
2018-11-22T02:04:34.972Z,0
2018-11-22T02:05:43.610Z,0
2018-11-22T02:06:52.248Z,0
2018-11-22T02:08:00.881Z,0
2018-11-22T02:09:09.514Z,0
2018-11-22T02:10:18.149Z,0
2018-11-22T02:11:26.788Z,0
2018-11-22T02:12:35.422Z,0
2018-11-22T02:13:44.324Z,0
2018-11-22T02:14:52.958Z,0
2018-11-22T02:16:01.601Z,0
2018-11-22T02:17:10.226Z,0
2018-11-22T02:18:18.863Z,0
2018-11-22T02:19:27.496Z,0
2018-11-22T02:20:36.140Z,0
2018-11-22T02:21:44.772Z,0
2018-11-22T02:22:53.403Z,0
2018-11-22T02:24:02.041Z,0
2018-11-22T02:25:10.681Z,0
2018-11-22T02:26:19.324Z,0
2018-11-22T02:27:27.955Z,0
2018-11-22T02:28:36.596Z,0
2018-11-22T02:29:45.227Z,0
2018-11-22T02:30:53.872Z,0
2018-11-22T02:32:02.501Z,0
2018-11-22T02:33:11.150Z,0
2018-11-22T02:34:20.048Z,0
2018-11-22T02:35:28.692Z,0
2018-11-22T02:36:37.592Z,0
2018-11-22T02:37:46.495Z,0
2018-11-22T02:38:55.381Z,0
2018-11-22T02:40:04.016Z,0
2018-11-22T02:41:12.657Z,0
2018-11-22T02:42:21.295Z,0
2018-11-22T02:43:29.935Z,0
2018-11-22T02:44:38.561Z,0
2018-11-22T02:45:47.204Z,0
2018-11-22T02:46:55.834Z,0
2018-11-22T02:48:04.491Z,0
2018-11-22T02:49:13.386Z,0
2018-11-22T02:50:22.292Z,0
2018-11-22T02:51:30.921Z,0
2018-11-22T02:52:39.566Z,0
2018-11-22T02:53:48.194Z,0
2018-11-22T02:54:57.091Z,0
2018-11-22T02:56:05.728Z,0
2018-11-22T02:57:14.377Z,0
2018-11-22T02:58:23.013Z,0
2018-11-22T02:59:31.645Z,0
2018-11-22T03:00:40.280Z,0
2018-11-22T03:01:48.916Z,0
2018-11-22T03:02:57.567Z,0
2018-11-22T03:04:06.724Z,0
2018-11-22T03:05:15.367Z,0
2018-11-22T03:06:24.261Z,0
2018-11-22T03:07:32.903Z,0
2018-11-22T03:08:41.533Z,0
2018-11-22T03:09:50.173Z,0
2018-11-22T03:10:58.801Z,0
2018-11-22T03:12:07.446Z,0
2018-11-22T03:13:16.078Z,0
2018-11-22T03:14:25.243Z,0
2018-11-22T03:15:34.149Z,0
2018-11-22T03:16:42.779Z,0
2018-11-22T03:17:51.699Z,0
2018-11-22T03:19:00.332Z,0
2018-11-22T03:20:09.491Z,0
2018-11-22T03:21:18.397Z,0
2018-11-22T03:22:27.035Z,0
2018-11-22T03:23:35.666Z,0
2018-11-22T03:24:44.560Z,0
2018-11-22T03:25:53.201Z,0
2018-11-22T03:27:01.835Z,0
2018-11-22T03:28:10.734Z,0
2018-11-22T03:29:19.635Z,0
2018-11-22T03:30:28.278Z,0
2018-11-22T03:31:37.450Z,0
2018-11-22T03:32:46.616Z,0
2018-11-22T03:33:55.249Z,0
2018-11-22T03:35:03.887Z,0
2018-11-22T03:36:12.525Z,0
2018-11-22T03:37:21.163Z,0
2018-11-22T03:38:29.800Z,0
2018-11-22T03:39:38.701Z,0
2018-11-22T03:40:47.343Z,0
2018-11-22T03:41:55.978Z,0
2018-11-22T03:43:04.881Z,0
2018-11-22T03:44:13.507Z,0
2018-11-22T03:45:22.161Z,0
2018-11-22T03:46:30.799Z,0
2018-11-22T03:47:39.699Z,0
2018-11-22T03:48:48.851Z,0
2018-11-22T03:49:57.489Z,0
2018-11-22T03:51:06.122Z,0
2018-11-22T03:52:14.763Z,0
2018-11-22T03:53:23.927Z,0
2018-11-22T03:54:32.568Z,0
2018-11-22T03:55:41.467Z,0
2018-11-22T03:56:50.100Z,0
2018-11-22T03:57:59.006Z,0
2018-11-22T03:59:07.907Z,0
2018-11-22T04:00:16.547Z,0
2018-11-22T04:01:25.172Z,0
2018-11-22T04:02:33.819Z,0
2018-11-22T04:03:42.718Z,0
2018-11-22T04:04:51.353Z,0
2018-11-22T04:05:59.989Z,0
2018-11-22T04:07:08.886Z,0
2018-11-22T04:08:17.523Z,0
2018-11-22T04:09:26.165Z,0
2018-11-22T04:10:35.064Z,0
2018-11-22T04:11:43.702Z,0
2018-11-22T04:12:52.349Z,0
2018-11-22T04:14:01.255Z,0
2018-11-22T04:15:10.155Z,0
2018-11-22T04:16:18.788Z,0
2018-11-22T04:17:27.684Z,0
2018-11-22T04:18:36.319Z,0
2018-11-22T04:19:44.967Z,0
2018-11-22T04:20:53.858Z,0
2018-11-22T04:22:02.498Z,0
2018-11-22T04:23:11.392Z,0
2018-11-22T04:24:20.566Z,0
2018-11-22T04:25:29.201Z,0
2018-11-22T04:26:37.839Z,0
2018-11-22T04:27:46.732Z,0
2018-11-22T04:28:55.379Z,0
2018-11-22T04:30:04.547Z,0
2018-11-22T04:31:13.178Z,0
2018-11-22T04:32:21.822Z,0
2018-11-22T04:33:30.718Z,0
2018-11-22T04:34:39.368Z,0
2018-11-22T04:35:48.260Z,0
2018-11-22T04:36:56.902Z,0
2018-11-22T04:38:06.311Z,0
2018-11-22T04:39:14.955Z,0
2018-11-22T04:40:23.591Z,0
2018-11-22T04:41:32.497Z,0
2018-11-22T04:42:41.122Z,0
2018-11-22T04:43:49.765Z,0
2018-11-22T04:44:58.400Z,0
2018-11-22T04:46:07.041Z,0
2018-11-22T04:47:15.663Z,0
2018-11-22T04:48:24.566Z,0
2018-11-22T04:49:33.206Z,0
2018-11-22T04:50:41.848Z,0
2018-11-22T04:51:50.480Z,0
2018-11-22T04:52:59.372Z,0
2018-11-22T04:54:08.285Z,0
2018-11-22T04:55:17.177Z,0
2018-11-22T04:56:25.836Z,0
2018-11-22T04:57:34.459Z,0
2018-11-22T04:58:43.100Z,0
2018-11-22T04:59:51.990Z,0
2018-11-22T05:01:00.907Z,0
2018-11-22T05:02:09.796Z,0
2018-11-22T05:03:18.694Z,0
2018-11-22T05:04:30.643Z,0
2018-11-22T05:05:39.693Z,0
2018-11-22T05:06:48.341Z,0
2018-11-22T05:07:56.977Z,0
2018-11-22T05:09:05.612Z,0
2018-11-22T05:10:14.787Z,0
2018-11-22T05:11:23.434Z,0
2018-11-22T05:12:32.071Z,0
2018-11-22T05:13:40.698Z,0
2018-11-22T05:14:49.342Z,0
2018-11-22T05:15:57.971Z,0
2018-11-22T05:17:06.877Z,0
2018-11-22T05:18:15.508Z,0
2018-11-22T05:19:24.152Z,0
2018-11-22T05:20:32.783Z,0
2018-11-22T05:21:41.420Z,0
2018-11-22T05:22:50.052Z,0
2018-11-22T05:23:58.695Z,0
2018-11-22T05:25:07.328Z,0
2018-11-22T05:26:15.959Z,0
2018-11-22T05:27:24.590Z,0
2018-11-22T05:28:33.241Z,0
2018-11-22T05:29:41.884Z,0
2018-11-22T05:30:50.513Z,0
2018-11-22T05:31:59.150Z,0
2018-11-22T05:33:07.781Z,0
2018-11-22T05:34:16.431Z,0
2018-11-22T05:35:25.060Z,0
2018-11-22T05:36:33.707Z,0
2018-11-22T05:37:42.328Z,0
2018-11-22T05:38:50.972Z,0
2018-11-22T05:39:59.602Z,0
2018-11-22T05:41:08.238Z,0
2018-11-22T05:42:16.865Z,0
2018-11-22T05:43:25.507Z,0
2018-11-22T05:44:34.147Z,0
2018-11-22T05:45:42.785Z,0
2018-11-22T05:46:51.422Z,0
2018-11-22T05:48:00.048Z,0
2018-11-22T05:49:08.686Z,0
2018-11-22T05:50:17.319Z,0
2018-11-22T05:51:25.971Z,0
2018-11-22T05:52:34.848Z,0
2018-11-22T05:53:43.486Z,0
2018-11-22T05:54:52.117Z,0
2018-11-22T05:56:00.762Z,0
2018-11-22T05:57:09.389Z,0
2018-11-22T05:58:18.026Z,0
2018-11-22T05:59:26.659Z,0
2018-11-22T06:00:35.577Z,0
2018-11-22T06:01:44.214Z,0
2018-11-22T06:02:52.844Z,0
2018-11-22T06:04:01.475Z,0
2018-11-22T06:05:10.108Z,0
2018-11-22T06:06:18.754Z,0
2018-11-22T06:07:27.387Z,0
2018-11-22T06:08:36.026Z,0
2018-11-22T06:09:44.653Z,0
2018-11-22T06:10:53.295Z,0
2018-11-22T06:12:01.935Z,0
2018-11-22T06:13:11.094Z,0
2018-11-22T06:14:19.999Z,0
2018-11-22T06:15:28.638Z,0
2018-11-22T06:16:37.270Z,0
2018-11-22T06:17:45.906Z,0
2018-11-22T06:18:54.538Z,0
2018-11-22T06:20:03.175Z,0
2018-11-22T06:21:11.811Z,0
2018-11-22T06:22:20.452Z,0
2018-11-22T06:23:29.089Z,0
2018-11-22T06:24:37.991Z,0
2018-11-22T06:25:46.892Z,0
2018-11-22T06:26:55.525Z,0
2018-11-22T06:28:04.433Z,0
2018-11-22T06:29:13.063Z,0
2018-11-22T06:30:21.699Z,0
2018-11-22T06:31:30.334Z,0
2018-11-22T06:32:38.975Z,0
2018-11-22T06:33:47.605Z,0
2018-11-22T06:34:56.242Z,0
2018-11-22T06:36:04.875Z,0
2018-11-22T06:37:13.513Z,0
2018-11-22T06:38:22.157Z,0
2018-11-22T06:39:31.052Z,0
2018-11-22T06:40:39.682Z,0
2018-11-22T06:41:48.313Z,0
2018-11-22T06:42:56.954Z,0
2018-11-22T06:44:05.590Z,0
2018-11-22T06:45:14.488Z,0
2018-11-22T06:46:23.382Z,0
2018-11-22T06:47:32.023Z,0
2018-11-22T06:48:40.923Z,0
2018-11-22T06:49:49.560Z,0
2018-11-22T06:50:58.356Z,0
2018-11-22T06:52:06.830Z,0
2018-11-22T06:53:15.462Z,0
2018-11-22T06:54:24.360Z,0
2018-11-22T06:55:32.991Z,0
2018-11-22T06:56:41.632Z,0
2018-11-22T06:57:50.267Z,0
2018-11-22T06:58:58.904Z,0
2018-11-22T07:00:07.541Z,0
2018-11-22T07:01:16.172Z,0
2018-11-22T07:02:24.809Z,0
2018-11-22T07:03:33.441Z,0
2018-11-22T07:04:42.086Z,0
2018-11-22T07:05:50.718Z,0
2018-11-22T07:06:59.358Z,0
2018-11-22T07:08:07.996Z,0
2018-11-22T07:09:16.907Z,0
2018-11-22T07:10:25.532Z,0
2018-11-22T07:11:34.168Z,5
2018-11-22T07:12:42.802Z,5
2018-11-22T07:13:51.447Z,5
2018-11-22T07:15:00.081Z,5
2018-11-22T07:16:08.711Z,5
2018-11-22T07:17:17.343Z,5
2018-11-22T07:18:25.977Z,5
2018-11-22T07:19:34.633Z,5
2018-11-22T07:20:43.255Z,5
2018-11-22T07:21:52.160Z,5
2018-11-22T07:23:00.788Z,5
2018-11-22T07:24:09.432Z,5
2018-11-22T07:25:18.062Z,5
2018-11-22T07:26:26.701Z,5
2018-11-22T07:27:38.242Z,10
2018-11-22T07:28:43.971Z,10
2018-11-22T07:29:52.880Z,10
2018-11-22T07:31:01.507Z,10
2018-11-22T07:32:10.392Z,10
2018-11-22T07:33:19.034Z,10
2018-11-22T07:34:27.671Z,10
2018-11-22T07:35:36.312Z,10
2018-11-22T07:36:44.951Z,15
2018-11-22T07:37:53.580Z,15
2018-11-22T07:39:02.219Z,15
2018-11-22T07:40:10.852Z,15
2018-11-22T07:41:19.497Z,15
2018-11-22T07:42:28.122Z,20
2018-11-22T07:43:36.770Z,20
2018-11-22T07:44:45.662Z,20
2018-11-22T07:45:54.304Z,20
2018-11-22T07:47:02.932Z,20
2018-11-22T07:48:11.569Z,20
2018-11-22T07:49:20.202Z,20
2018-11-22T07:50:28.847Z,20
2018-11-22T07:51:37.480Z,20
2018-11-22T07:52:46.111Z,20
2018-11-22T07:53:54.744Z,20
2018-11-22T07:55:03.389Z,25
2018-11-22T07:56:12.032Z,25
2018-11-22T07:57:20.664Z,25
2018-11-22T07:58:29.303Z,25
2018-11-22T07:59:37.929Z,25
2018-11-22T08:00:46.572Z,25
2018-11-22T08:01:55.203Z,25
2018-11-22T08:03:03.845Z,25
2018-11-22T08:04:12.474Z,30
2018-11-22T08:05:21.726Z,30
2018-11-22T08:06:30.360Z,30
2018-11-22T08:07:38.996Z,30
2018-11-22T08:08:47.889Z,30
2018-11-22T08:09:56.549Z,30
2018-11-22T08:11:05.161Z,30
2018-11-22T08:12:13.800Z,25
2018-11-22T08:13:22.438Z,25
2018-11-22T08:14:31.067Z,25
2018-11-22T08:15:39.704Z,30
2018-11-22T08:16:48.339Z,30
2018-11-22T08:17:56.984Z,35
2018-11-22T08:19:05.619Z,35
2018-11-22T08:20:14.256Z,40
2018-11-22T08:21:22.897Z,40
2018-11-22T08:22:31.539Z,40
2018-11-22T08:23:40.171Z,40
2018-11-22T08:24:49.073Z,40
2018-11-22T08:25:57.973Z,40
2018-11-22T08:27:06.610Z,40
2018-11-22T08:28:15.242Z,40
2018-11-22T08:29:23.878Z,40
2018-11-22T08:30:32.517Z,35
2018-11-22T08:31:41.148Z,35
2018-11-22T08:32:52.631Z,40
2018-11-22T08:33:58.425Z,45
2018-11-22T08:35:07.061Z,45
2018-11-22T08:36:15.698Z,50
2018-11-22T08:37:24.595Z,50
2018-11-22T08:38:33.497Z,50
2018-11-22T08:39:42.130Z,50
2018-11-22T08:40:50.759Z,50
2018-11-22T08:41:59.399Z,50
2018-11-22T08:43:08.033Z,50
2018-11-22T08:44:16.672Z,50
2018-11-22T08:45:25.560Z,50
2018-11-22T08:46:34.197Z,50
2018-11-22T08:47:42.832Z,50
2018-11-22T08:48:51.473Z,50
2018-11-22T08:50:00.115Z,50
2018-11-22T08:51:08.748Z,50
2018-11-22T08:52:17.384Z,50
2018-11-22T08:53:26.021Z,50
2018-11-22T08:54:34.668Z,50
2018-11-22T08:55:43.299Z,50
2018-11-22T08:56:51.932Z,50
2018-11-22T08:58:00.571Z,50
2018-11-22T08:59:09.472Z,50
2018-11-22T09:00:18.108Z,50
2018-11-22T09:01:27.008Z,50
2018-11-22T09:02:35.639Z,50
2018-11-22T09:03:44.276Z,50
2018-11-22T09:04:52.948Z,50
2018-11-22T09:06:01.641Z,50
2018-11-22T09:07:10.329Z,50
2018-11-22T09:08:19.315Z,55
2018-11-22T09:09:27.984Z,55
2018-11-22T09:10:36.665Z,55
2018-11-22T09:11:45.343Z,50
2018-11-22T09:12:54.036Z,55
2018-11-22T09:14:02.967Z,55
2018-11-22T09:15:11.648Z,55
2018-11-22T09:16:20.589Z,55
2018-11-22T09:17:29.527Z,55
2018-11-22T09:18:38.209Z,55
2018-11-22T09:19:46.888Z,50
2018-11-22T09:20:55.570Z,50
2018-11-22T09:22:04.515Z,50
2018-11-22T09:23:13.190Z,55
2018-11-22T09:24:28.477Z,55
2018-11-22T09:25:37.669Z,55
2018-11-22T09:26:46.346Z,55
2018-11-22T09:27:55.027Z,55
2018-11-22T09:29:03.710Z,55
2018-11-22T09:30:12.665Z,55
2018-11-22T09:31:21.337Z,60
2018-11-22T09:32:30.019Z,60
2018-11-22T09:33:38.698Z,60
2018-11-22T09:34:47.380Z,60
2018-11-22T09:35:56.055Z,60
2018-11-22T09:37:04.996Z,60
2018-11-22T09:38:13.673Z,60
2018-11-22T09:39:22.349Z,60
2018-11-22T09:40:31.523Z,60
2018-11-22T09:41:40.209Z,55
2018-11-22T09:42:49.393Z,55
2018-11-22T09:43:58.074Z,55
2018-11-22T09:45:07.010Z,60
2018-11-22T09:46:15.684Z,60
2018-11-22T09:47:24.376Z,55
2018-11-22T09:48:33.480Z,55
2018-11-22T09:49:42.682Z,55
2018-11-22T09:50:51.419Z,60
2018-11-22T09:52:00.090Z,60
2018-11-22T09:53:08.764Z,60
2018-11-22T09:54:17.434Z,65
2018-11-22T09:55:26.101Z,65
2018-11-22T09:56:34.773Z,65
2018-11-22T09:57:43.436Z,65
2018-11-22T09:58:52.105Z,65
2018-11-22T10:00:00.879Z,65
2018-11-22T10:01:09.576Z,65
2018-11-22T10:02:18.508Z,65
2018-11-22T10:03:27.186Z,65
2018-11-22T10:04:36.169Z,60
2018-11-22T10:05:45.707Z,60
2018-11-22T10:06:54.739Z,60
2018-11-22T10:08:03.459Z,60
2018-11-22T10:09:12.721Z,60
2018-11-22T10:10:21.420Z,60
2018-11-22T10:11:30.107Z,60
2018-11-22T10:12:39.844Z,65
2018-11-22T10:13:49.113Z,65
2018-11-22T10:14:57.790Z,65
2018-11-22T10:16:06.731Z,65
2018-11-22T10:17:16.386Z,65
2018-11-22T10:18:25.195Z,65
2018-11-22T10:19:33.946Z,65
2018-11-22T10:20:42.676Z,70
2018-11-22T10:21:51.615Z,70
2018-11-22T10:23:00.288Z,70
2018-11-22T10:24:09.608Z,70
2018-11-22T10:25:18.349Z,70
2018-11-22T10:26:27.291Z,70
2018-11-22T10:27:35.959Z,70
2018-11-22T10:28:44.645Z,75
2018-11-22T10:29:53.323Z,75
2018-11-22T10:31:02.016Z,70
2018-11-22T10:32:10.689Z,70
2018-11-22T10:33:19.379Z,70
2018-11-22T10:34:28.425Z,70
2018-11-22T10:35:37.372Z,70
2018-11-22T10:36:46.063Z,70
2018-11-22T10:37:56.199Z,70
2018-11-22T10:39:05.730Z,75
2018-11-22T10:40:14.778Z,75
2018-11-22T10:41:23.973Z,75
2018-11-22T10:42:33.453Z,75
2018-11-22T10:43:42.460Z,75
2018-11-22T10:44:51.395Z,75
2018-11-22T10:46:00.121Z,75
2018-11-22T10:47:08.840Z,75
2018-11-22T10:48:17.525Z,75
2018-11-22T10:49:26.453Z,75
2018-11-22T10:50:35.145Z,75
2018-11-22T10:51:43.821Z,75
2018-11-22T10:52:52.751Z,70
2018-11-22T10:54:01.445Z,70
2018-11-22T10:55:10.511Z,70
2018-11-22T10:56:19.504Z,70
2018-11-22T10:57:28.341Z,70
2018-11-22T10:58:37.077Z,70
2018-11-22T10:59:45.757Z,75
2018-11-22T11:00:54.595Z,75
2018-11-22T11:02:03.471Z,70
2018-11-22T11:03:12.178Z,70
2018-11-22T11:04:20.995Z,65
2018-11-22T11:05:29.834Z,70
2018-11-22T11:06:38.908Z,70
2018-11-22T11:07:47.909Z,75
2018-11-22T11:08:56.598Z,75
2018-11-22T11:10:05.536Z,75
2018-11-22T11:11:15.408Z,75
2018-11-22T11:12:30.306Z,75
2018-11-22T11:13:39.369Z,75
2018-11-22T11:14:48.341Z,75
2018-11-22T11:15:57.031Z,75
2018-11-22T11:17:06.224Z,75
2018-11-22T11:18:14.914Z,70
2018-11-22T11:19:23.607Z,75
2018-11-22T11:20:32.293Z,70
2018-11-22T11:21:40.969Z,70
2018-11-22T11:22:50.128Z,70
2018-11-22T11:23:58.816Z,70
2018-11-22T11:25:07.755Z,70
2018-11-22T11:26:16.433Z,70
2018-11-22T11:27:25.621Z,70
2018-11-22T11:28:34.301Z,70
2018-11-22T11:29:42.978Z,75
2018-11-22T11:30:51.659Z,70
2018-11-22T11:32:00.598Z,70
2018-11-22T11:33:09.285Z,70
2018-11-22T11:34:17.972Z,65
2018-11-22T11:35:26.920Z,65
2018-11-22T11:36:35.601Z,65
2018-11-22T11:37:44.285Z,70
2018-11-22T11:38:52.962Z,75
2018-11-22T11:40:07.649Z,75
2018-11-22T11:41:16.329Z,80
2018-11-22T11:42:25.260Z,80
2018-11-22T11:43:33.939Z,80
2018-11-22T11:44:42.615Z,75
2018-11-22T11:45:51.294Z,75
2018-11-22T11:46:59.973Z,75
2018-11-22T11:48:08.907Z,80
2018-11-22T11:49:17.586Z,80
2018-11-22T11:50:26.519Z,80
2018-11-22T11:51:35.193Z,80
2018-11-22T11:52:43.870Z,80
2018-11-22T11:53:52.547Z,75
2018-11-22T11:55:01.489Z,70
2018-11-22T11:56:10.426Z,70
2018-11-22T11:57:19.357Z,70
2018-11-22T11:58:28.547Z,70
2018-11-22T11:59:37.229Z,70
2018-11-22T12:00:45.903Z,70
2018-11-22T12:01:54.583Z,70
2018-11-22T12:03:03.471Z,65
2018-11-22T12:04:12.156Z,65
2018-11-22T12:05:20.925Z,65
2018-11-22T12:06:29.867Z,65
2018-11-22T12:07:39.066Z,65
2018-11-22T12:08:47.972Z,70
2018-11-22T12:10:02.800Z,70
2018-11-22T12:11:11.768Z,70
2018-11-22T12:12:20.541Z,65
2018-11-22T12:13:29.207Z,65
2018-11-22T12:14:37.890Z,65
2018-11-22T12:16:55.267Z,60
2018-11-22T12:18:04.212Z,55
2018-11-22T12:19:12.893Z,50
2018-11-22T12:20:21.815Z,50
2018-11-22T12:21:30.772Z,50
2018-11-22T12:22:39.693Z,50
2018-11-22T12:23:48.545Z,50
2018-11-22T12:24:57.494Z,50
2018-11-22T12:26:06.195Z,55
2018-11-22T12:27:14.912Z,55
2018-11-22T12:28:23.844Z,50
2018-11-22T12:29:32.567Z,50
2018-11-22T12:30:41.511Z,50
2018-11-22T12:31:50.205Z,50
2018-11-22T12:32:59.143Z,50
2018-11-22T12:34:08.340Z,50
2018-11-22T12:35:17.267Z,50
2018-11-22T12:36:25.963Z,50
2018-11-22T12:37:34.640Z,50
2018-11-22T12:38:43.659Z,50
2018-11-22T12:39:52.333Z,50
2018-11-22T12:41:01.270Z,50
2018-11-22T12:42:09.952Z,50
2018-11-22T12:43:18.645Z,50
2018-11-22T12:44:27.579Z,50
2018-11-22T12:45:36.511Z,50
2018-11-22T12:46:45.245Z,55
2018-11-22T12:47:54.182Z,50
2018-11-22T12:49:02.863Z,50
2018-11-22T12:50:11.797Z,50
2018-11-22T12:51:20.497Z,50
2018-11-22T12:52:29.172Z,50
2018-11-22T12:53:38.134Z,50
2018-11-22T12:54:46.809Z,50
2018-11-22T12:55:55.535Z,50
2018-11-22T12:57:04.722Z,50
2018-11-22T12:58:13.706Z,50
2018-11-22T12:59:22.785Z,50
2018-11-22T13:00:31.560Z,50
2018-11-22T13:01:40.375Z,50
2018-11-22T13:02:49.187Z,45
2018-11-22T13:03:58.124Z,45
2018-11-22T13:05:06.900Z,45
2018-11-22T13:06:15.950Z,45
2018-11-22T13:07:25.006Z,45
2018-11-22T13:08:33.749Z,45
2018-11-22T13:09:42.488Z,45
2018-11-22T13:10:51.515Z,35
2018-11-22T13:12:00.456Z,35
2018-11-22T13:13:09.133Z,40
2018-11-22T13:14:17.866Z,45
2018-11-22T13:15:27.134Z,40
2018-11-22T13:16:36.095Z,40
2018-11-22T13:17:45.275Z,40
2018-11-22T13:18:59.212Z,40
2018-11-22T13:20:08.073Z,40
2018-11-22T13:21:16.763Z,40
2018-11-22T13:22:25.977Z,40
2018-11-22T13:23:35.157Z,40
2018-11-22T13:24:43.836Z,40
2018-11-22T13:25:52.520Z,40
2018-11-22T13:27:01.474Z,40
2018-11-22T13:28:10.154Z,40
2018-11-22T13:29:18.841Z,40
2018-11-22T13:30:27.564Z,40
2018-11-22T13:31:36.256Z,40
2018-11-22T13:32:44.933Z,40
2018-11-22T13:33:53.876Z,40
2018-11-22T13:35:02.551Z,40
2018-11-22T13:36:11.242Z,40
2018-11-22T13:37:20.170Z,45
2018-11-22T13:38:28.852Z,45
2018-11-22T13:39:37.786Z,45
2018-11-22T13:40:46.724Z,40
2018-11-22T13:41:55.667Z,40
2018-11-22T13:43:04.369Z,40
2018-11-22T13:44:13.311Z,40
2018-11-22T13:45:22.949Z,40
2018-11-22T13:46:32.099Z,40
2018-11-22T13:47:41.505Z,40
2018-11-22T13:48:52.081Z,40
2018-11-22T13:50:01.031Z,40
2018-11-22T13:51:09.983Z,35
2018-11-22T13:52:18.661Z,30
2018-11-22T13:53:29.285Z,30
2018-11-22T13:54:37.955Z,30
2018-11-22T13:55:46.637Z,25
2018-11-22T13:56:55.312Z,25
2018-11-22T13:58:04.003Z,25
2018-11-22T13:59:13.189Z,25
2018-11-22T14:00:22.672Z,25
2018-11-22T14:01:31.353Z,25
2018-11-22T14:02:40.025Z,25
2018-11-22T14:03:48.711Z,25
2018-11-22T14:04:57.392Z,30
2018-11-22T14:06:06.581Z,30
2018-11-22T14:07:15.509Z,30
2018-11-22T14:08:24.195Z,25
2018-11-22T14:09:32.877Z,25
2018-11-22T14:10:41.562Z,20
2018-11-22T14:11:50.246Z,20
2018-11-22T14:12:59.185Z,20
2018-11-22T14:14:07.865Z,20
2018-11-22T14:15:16.543Z,20
2018-11-22T14:16:25.487Z,20
2018-11-22T14:17:34.165Z,20
2018-11-22T14:18:43.094Z,20
2018-11-22T14:19:52.030Z,20
2018-11-22T14:21:00.724Z,20
2018-11-22T14:22:09.930Z,20
2018-11-22T14:23:18.616Z,15
2018-11-22T14:24:27.546Z,15
2018-11-22T14:25:36.245Z,15
2018-11-22T14:26:45.170Z,15
2018-11-22T14:27:53.848Z,15
2018-11-22T14:29:02.536Z,15
2018-11-22T14:30:11.233Z,15
2018-11-22T14:31:19.911Z,15
2018-11-22T14:32:28.849Z,15
2018-11-22T14:33:37.525Z,15
2018-11-22T14:34:46.220Z,15
2018-11-22T14:35:55.411Z,15
2018-11-22T14:37:04.086Z,15
2018-11-22T14:38:12.765Z,15
2018-11-22T14:39:21.439Z,15
2018-11-22T14:40:30.517Z,15
2018-11-22T14:41:39.199Z,15
2018-11-22T14:42:48.143Z,15
2018-11-22T14:43:56.813Z,15
2018-11-22T14:45:05.499Z,15
2018-11-22T14:46:14.436Z,15
2018-11-22T14:47:23.120Z,10
2018-11-22T14:48:32.061Z,10
2018-11-22T14:49:40.748Z,10
2018-11-22T14:50:49.427Z,10
2018-11-22T14:51:58.109Z,10
2018-11-22T14:53:06.783Z,10
2018-11-22T14:54:15.464Z,10
2018-11-22T14:55:24.160Z,10
2018-11-22T14:56:32.841Z,10
2018-11-22T14:57:42.030Z,10
2018-11-22T14:58:50.967Z,10
2018-11-22T14:59:59.649Z,10
2018-11-22T15:01:09.670Z,10
2018-11-22T15:02:18.363Z,10
2018-11-22T15:03:27.036Z,10
2018-11-22T15:04:35.721Z,10
2018-11-22T15:05:44.647Z,10
2018-11-22T15:06:53.348Z,10
2018-11-22T15:08:02.027Z,10
2018-11-22T15:09:10.959Z,5
2018-11-22T15:10:19.643Z,5
2018-11-22T15:11:28.330Z,5
2018-11-22T15:12:37.011Z,5
2018-11-22T15:13:45.685Z,5
2018-11-22T15:14:54.359Z,5
2018-11-22T15:16:03.034Z,5
2018-11-22T15:17:11.724Z,5
2018-11-22T15:18:20.397Z,5
2018-11-22T15:19:29.079Z,5
2018-11-22T15:20:37.759Z,5
2018-11-22T15:21:47.206Z,5
2018-11-22T15:22:55.883Z,5
2018-11-22T15:24:04.854Z,5
2018-11-22T15:25:13.780Z,5
2018-11-22T15:26:22.474Z,0
2018-11-22T15:27:31.150Z,0
2018-11-22T15:28:39.835Z,0
2018-11-22T15:29:48.505Z,0
2018-11-22T15:30:57.710Z,0
2018-11-22T15:32:06.397Z,0
2018-11-22T15:33:15.594Z,0
2018-11-22T15:34:24.526Z,0
2018-11-22T15:35:33.500Z,0
2018-11-22T15:36:42.181Z,0
2018-11-22T15:37:50.854Z,0
2018-11-22T15:38:59.790Z,0
2018-11-22T15:40:08.785Z,0
2018-11-22T15:41:17.981Z,0
2018-11-22T15:42:26.653Z,0
2018-11-22T15:43:35.340Z,0
2018-11-22T15:44:44.012Z,0
2018-11-22T15:45:52.692Z,0
2018-11-22T15:47:01.366Z,0
2018-11-22T15:48:10.055Z,0
2018-11-22T15:49:18.736Z,0
2018-11-22T15:50:27.666Z,0
2018-11-22T15:51:36.345Z,0
2018-11-22T15:52:45.020Z,0
2018-11-22T15:53:53.963Z,0
2018-11-22T15:55:02.641Z,0
2018-11-22T15:56:11.583Z,0
2018-11-22T15:57:20.584Z,0
2018-11-22T15:58:29.268Z,0
2018-11-22T15:59:37.954Z,0
2018-11-22T16:00:47.149Z,0
2018-11-22T16:01:55.833Z,0
2018-11-22T16:03:05.048Z,0
2018-11-22T16:04:13.727Z,0
2018-11-22T16:05:22.658Z,0
2018-11-22T16:06:31.338Z,0
2018-11-22T16:07:40.063Z,0
2018-11-22T16:08:49.107Z,0
2018-11-22T16:09:57.826Z,0
2018-11-22T16:11:06.763Z,0
2018-11-22T16:12:15.437Z,0
2018-11-22T16:13:24.115Z,0
2018-11-22T16:14:33.052Z,0
2018-11-22T16:15:41.996Z,0
2018-11-22T16:16:50.669Z,0
2018-11-22T16:17:59.604Z,0
2018-11-22T16:19:08.282Z,0
2018-11-22T16:20:17.218Z,0
2018-11-22T16:21:25.892Z,0
2018-11-22T16:22:34.835Z,0
2018-11-22T16:23:43.773Z,0
2018-11-22T16:24:52.461Z,0
2018-11-22T16:26:01.138Z,0
2018-11-22T16:27:10.073Z,0
2018-11-22T16:28:19.002Z,0
2018-11-22T16:29:27.678Z,0
2018-11-22T16:30:36.647Z,0
2018-11-22T16:31:45.580Z,0
2018-11-22T16:32:54.780Z,0
2018-11-22T16:34:03.456Z,0
2018-11-22T16:35:12.398Z,0
2018-11-22T16:36:21.079Z,0
2018-11-22T16:37:29.760Z,0
2018-11-22T16:38:39.042Z,0
2018-11-22T16:39:47.840Z,0
2018-11-22T16:41:02.610Z,0
2018-11-22T16:42:11.296Z,0